createdAt,value
2023-01-20T00:01:15.947Z,25.80
2023-01-20T00:05:24.179Z,23.80
2023-01-20T00:09:33.550Z,22.60
2023-01-20T00:13:41.920Z,24.50
2023-01-20T00:17:50.474Z,24.00
2023-01-20T00:21:58.162Z,21.70
2023-01-20T00:26:09.744Z,24.20
2023-01-20T00:30:19.211Z,23.40
2023-01-20T00:34:27.033Z,22.90
2023-01-20T00:38:34.836Z,25.10
2023-01-20T00:42:42.838Z,26.60
2023-01-20T00:46:50.796Z,26.20
2023-01-20T00:50:58.781Z,24.90
2023-01-20T00:55:07.606Z,22.70
2023-01-20T00:59:16.750Z,21.60
2023-01-20T01:03:25.584Z,21.10
2023-01-20T01:07:33.651Z,18.50
2023-01-20T01:11:41.811Z,15.90
2023-01-20T01:15:53.162Z,15.10
2023-01-20T01:20:01.463Z,15.80
2023-01-20T01:24:10.101Z,20.50
2023-01-20T01:28:18.042Z,20.10
2023-01-20T01:32:25.960Z,16.40
2023-01-20T01:36:34.053Z,16.80
2023-01-20T01:40:42.420Z,15.50
2023-01-20T01:45:20.593Z,15.70
2023-01-20T01:49:30.913Z,16.60
2023-01-20T01:53:43.828Z,14.30
2023-01-20T01:57:52.896Z,15.30
2023-01-20T02:02:01.202Z,15.30
2023-01-20T02:06:10.951Z,15.70
2023-01-20T02:10:18.571Z,19.00
2023-01-20T02:14:32.329Z,20.40
2023-01-20T02:18:48.778Z,23.80
2023-01-20T02:23:00.584Z,22.30
2023-01-20T02:27:13.810Z,20.30
2023-01-20T02:31:53.857Z,22.30
2023-01-20T02:36:04.591Z,22.30
2023-01-20T02:40:20.790Z,21.00
2023-01-20T02:44:40.217Z,19.00
2023-01-20T02:48:52.347Z,17.60
2023-01-20T02:53:02.024Z,26.30
2023-01-20T02:57:11.726Z,26.40
2023-01-20T03:01:22.494Z,24.90
2023-01-20T03:05:32.827Z,19.40
2023-01-20T03:09:44.754Z,16.70
2023-01-20T03:13:57.674Z,17.20
2023-01-20T03:18:06.702Z,17.40
2023-01-20T03:22:14.567Z,18.30
2023-01-20T03:26:24.338Z,17.00
2023-01-20T03:30:32.348Z,25.40
2023-01-20T03:34:43.518Z,24.40
2023-01-20T03:38:52.105Z,16.70
2023-01-20T03:43:06.128Z,17.00
2023-01-20T03:47:22.616Z,15.40
2023-01-20T03:51:34.551Z,15.20
2023-01-20T03:55:46.929Z,14.00
2023-01-20T03:59:55.943Z,13.50
2023-01-20T04:04:09.926Z,12.40
2023-01-20T04:08:19.561Z,19.20
2023-01-20T04:12:27.152Z,21.40
2023-01-20T04:16:35.363Z,17.10
2023-01-20T04:20:44.196Z,14.40
2023-01-20T04:24:55.861Z,14.30
2023-01-20T04:29:11.922Z,15.50
2023-01-20T04:33:21.271Z,15.30
2023-01-20T04:37:31.059Z,16.30
2023-01-20T04:41:39.358Z,20.40
2023-01-20T04:45:47.804Z,19.90
2023-01-20T04:49:55.222Z,19.40
2023-01-20T04:54:03.046Z,23.70
2023-01-20T04:58:11.742Z,53.20
2023-01-20T05:02:21.329Z,67.40
2023-01-20T05:06:29.729Z,64.20
2023-01-20T05:10:38.318Z,51.00
2023-01-20T05:14:46.824Z,40.30
2023-01-20T05:18:55.629Z,34.90
2023-01-20T05:23:03.211Z,30.30
2023-01-20T05:27:10.859Z,24.50
2023-01-20T05:31:21.453Z,22.60
2023-01-20T05:35:29.678Z,21.90
2023-01-20T05:39:37.264Z,38.30
2023-01-20T05:43:44.749Z,36.60
2023-01-20T05:47:58.028Z,28.60
2023-01-20T05:52:06.411Z,19.50
2023-01-20T05:56:17.091Z,18.60
2023-01-20T06:00:27.225Z,17.20
2023-01-20T06:04:35.070Z,17.20
2023-01-20T06:08:43.347Z,15.20
2023-01-20T06:12:56.450Z,15.70
2023-01-20T06:17:04.337Z,16.30
2023-01-20T06:21:12.402Z,24.40
2023-01-20T06:25:20.850Z,32.60
2023-01-20T06:29:28.405Z,22.80
2023-01-20T06:33:39.663Z,25.50
2023-01-20T06:37:47.824Z,23.30
2023-01-20T06:41:58.268Z,22.10
2023-01-20T06:46:08.545Z,22.30
2023-01-20T06:50:16.830Z,19.80
2023-01-20T06:54:27.601Z,22.30
2023-01-20T06:58:36.590Z,21.70
2023-01-20T07:02:44.501Z,20.30
2023-01-20T07:06:52.572Z,24.90
2023-01-20T07:11:00.447Z,31.80
2023-01-20T07:15:10.551Z,33.70
2023-01-20T07:19:17.903Z,30.20
2023-01-20T07:23:26.170Z,27.50
2023-01-20T07:27:34.222Z,30.00
2023-01-20T07:31:41.865Z,28.80
2023-01-20T07:35:54.822Z,26.70
2023-01-20T07:40:03.360Z,23.50
2023-01-20T07:44:12.348Z,21.20
2023-01-20T07:48:20.435Z,18.90
2023-01-20T07:52:28.083Z,23.70
2023-01-20T07:56:38.110Z,25.80
2023-01-20T08:00:49.202Z,24.40
2023-01-20T08:04:57.207Z,26.20
2023-01-20T08:09:05.747Z,27.00
2023-01-20T08:13:14.691Z,27.30
2023-01-20T08:17:22.660Z,22.90
2023-01-20T08:21:32.550Z,22.40
2023-01-20T08:25:40.686Z,19.60
2023-01-20T08:29:49.810Z,19.60
2023-01-20T08:33:58.544Z,27.50
2023-01-20T08:38:07.999Z,31.20
2023-01-20T08:42:16.898Z,30.10
2023-01-20T08:46:25.079Z,29.70
2023-01-20T08:50:34.485Z,22.40
2023-01-20T08:54:42.261Z,20.60
2023-01-20T08:58:52.404Z,18.70
2023-01-20T09:03:00.531Z,18.70
2023-01-20T09:07:11.591Z,19.20
2023-01-20T09:11:22.695Z,19.80
2023-01-20T09:15:30.635Z,18.70
2023-01-20T09:19:39.434Z,22.10
2023-01-20T09:23:48.387Z,25.60
2023-01-20T09:27:56.193Z,27.60
2023-01-20T09:32:03.864Z,25.30
2023-01-20T09:36:13.509Z,19.50
2023-01-20T09:40:43.305Z,18.60
2023-01-20T09:44:55.237Z,18.90
2023-01-20T09:49:28.096Z,18.40
2023-01-20T09:53:46.633Z,17.60
2023-01-20T09:57:59.534Z,18.20
2023-01-20T10:02:13.147Z,16.20
2023-01-20T10:06:26.920Z,15.60
2023-01-20T10:10:38.823Z,20.90
2023-01-20T10:14:49.210Z,24.20
2023-01-20T10:18:59.352Z,19.20
2023-01-20T10:23:11.926Z,17.60
2023-01-20T10:27:19.519Z,18.40
2023-01-20T10:31:30.131Z,14.50
2023-01-20T10:35:41.993Z,17.00
2023-01-20T10:39:53.689Z,15.60
2023-01-20T10:44:02.716Z,14.00
2023-01-20T10:48:20.001Z,13.60
2023-01-20T10:52:38.580Z,16.70
2023-01-20T10:56:54.062Z,20.90
2023-01-20T11:01:05.291Z,20.00
2023-01-20T11:05:20.195Z,16.40
2023-01-20T11:09:32.198Z,14.20
2023-01-20T11:13:39.799Z,12.30
2023-01-20T11:17:49.397Z,13.30
2023-01-20T11:21:57.346Z,12.70
2023-01-20T11:26:10.242Z,12.40
2023-01-20T11:30:28.353Z,12.00
2023-01-20T11:34:38.996Z,17.50
2023-01-20T11:38:48.105Z,18.50
2023-01-20T11:42:56.949Z,17.20
2023-01-20T11:47:23.253Z,14.80
2023-01-20T11:51:31.487Z,13.80
2023-01-20T11:55:48.666Z,14.60
2023-01-20T11:59:56.568Z,13.30
2023-01-20T12:04:23.476Z,12.80
2023-01-20T12:08:35.834Z,13.40
2023-01-20T12:12:48.427Z,11.70
2023-01-20T12:17:08.800Z,12.50
2023-01-20T12:21:17.877Z,12.80
2023-01-20T12:25:28.081Z,15.00
2023-01-20T12:29:44.755Z,14.50
2023-01-20T12:34:00.447Z,11.40
2023-01-20T12:38:10.259Z,9.50
2023-01-20T12:42:53.848Z,10.10
2023-01-20T12:47:08.714Z,9.60
2023-01-20T12:51:24.194Z,10.70
2023-01-20T12:55:41.901Z,9.20
2023-01-20T13:00:00.419Z,9.40
2023-01-20T13:04:53.468Z,9.60
2023-01-20T13:09:06.179Z,8.70
2023-01-20T13:13:24.472Z,11.70
2023-01-20T13:17:38.298Z,13.70
2023-01-20T13:21:56.522Z,13.90
2023-01-20T13:26:12.996Z,11.60
2023-01-20T13:30:44.512Z,9.50
2023-01-20T13:34:52.574Z,12.30
2023-01-20T13:39:27.317Z,12.20
2023-01-20T13:44:01.551Z,14.80
2023-01-20T13:48:25.562Z,15.90
2023-01-20T13:53:19.767Z,13.00
2023-01-20T13:57:47.761Z,11.50
2023-01-20T14:01:55.825Z,12.70
2023-01-20T14:06:06.275Z,14.60
2023-01-20T14:10:15.899Z,13.80
2023-01-20T14:14:25.847Z,17.50
2023-01-20T14:18:34.208Z,19.70
2023-01-20T14:22:42.330Z,19.80
2023-01-20T14:26:50.386Z,16.80
2023-01-20T14:31:19.626Z,15.30
2023-01-20T14:35:31.307Z,15.10
2023-01-20T14:39:40.560Z,15.40
2023-01-20T14:43:49.560Z,16.50
2023-01-20T14:47:57.854Z,21.50
2023-01-20T14:52:05.790Z,21.50
2023-01-20T14:56:21.556Z,22.00
2023-01-20T15:00:30.572Z,18.40
2023-01-20T15:04:41.495Z,17.50
2023-01-20T15:09:05.130Z,13.50
2023-01-20T15:13:27.728Z,14.20
2023-01-20T15:17:35.230Z,16.90
2023-01-20T15:21:44.509Z,20.10
2023-01-20T15:25:54.203Z,20.70
2023-01-20T15:30:24.357Z,16.50
2023-01-20T15:34:32.172Z,15.10
2023-01-20T15:38:40.321Z,14.30
2023-01-20T15:42:48.429Z,15.80
2023-01-20T15:46:57.658Z,22.70
2023-01-20T15:51:07.465Z,25.20
2023-01-20T15:55:20.136Z,23.30
2023-01-20T15:59:30.684Z,17.80
2023-01-20T16:03:38.996Z,17.40
2023-01-20T16:07:47.973Z,18.60
2023-01-20T16:11:55.809Z,16.90
2023-01-20T16:16:04.146Z,16.30
2023-01-20T16:20:21.544Z,15.80
2023-01-20T16:24:29.425Z,19.70
2023-01-20T16:28:38.120Z,16.20
2023-01-20T16:32:47.419Z,15.90
2023-01-20T16:36:55.143Z,16.90
2023-01-20T16:41:07.997Z,18.50
2023-01-20T16:45:31.567Z,19.10
2023-01-20T16:49:40.290Z,18.70
2023-01-20T16:53:48.639Z,16.20
2023-01-20T16:57:56.483Z,17.50
2023-01-20T17:02:04.550Z,16.30
2023-01-20T17:06:17.853Z,16.70
2023-01-20T17:10:26.576Z,19.40
2023-01-20T17:14:35.145Z,17.40
2023-01-20T17:18:45.946Z,17.60
2023-01-20T17:22:55.974Z,20.00
2023-01-20T17:27:03.992Z,20.10
2023-01-20T17:31:15.020Z,16.80
2023-01-20T17:35:22.752Z,14.90
2023-01-20T17:39:39.666Z,20.70
2023-01-20T17:43:51.594Z,24.00
2023-01-20T17:47:59.210Z,20.00
2023-01-20T17:52:07.218Z,22.40
2023-01-20T17:56:15.608Z,16.80
2023-01-20T18:00:24.753Z,19.70
2023-01-20T18:04:32.877Z,19.40
2023-01-20T18:08:41.216Z,24.30
2023-01-20T18:12:49.247Z,22.90
2023-01-20T18:16:57.654Z,24.20
2023-01-20T18:21:13.527Z,22.60
2023-01-20T18:25:21.493Z,20.80
2023-01-20T18:29:30.532Z,20.90
2023-01-20T18:33:40.026Z,27.80
2023-01-20T18:37:48.107Z,24.20
2023-01-20T18:41:56.190Z,22.30
2023-01-20T18:46:04.504Z,23.60
2023-01-20T18:50:13.996Z,22.20
2023-01-20T18:54:22.291Z,23.50
2023-01-20T18:58:31.883Z,24.40
2023-01-20T19:02:41.340Z,20.40
2023-01-20T19:06:49.487Z,24.30
2023-01-20T19:10:57.384Z,28.30
2023-01-20T19:15:05.151Z,21.70
2023-01-20T19:19:13.325Z,19.30
2023-01-20T19:23:21.630Z,22.80
2023-01-20T19:27:30.014Z,23.50
2023-01-20T19:31:40.284Z,20.80
2023-01-20T19:35:48.181Z,22.80
2023-01-20T19:39:57.000Z,21.90
2023-01-20T19:44:07.167Z,22.30
2023-01-20T19:48:14.932Z,21.80
2023-01-20T19:52:22.577Z,24.20
2023-01-20T19:56:32.584Z,25.20
2023-01-20T20:00:40.355Z,21.20
2023-01-20T20:04:48.644Z,20.30
2023-01-20T20:08:57.557Z,19.50
2023-01-20T20:13:05.892Z,26.40
2023-01-20T20:17:14.084Z,23.20
2023-01-20T20:21:22.614Z,25.00
2023-01-20T20:25:30.817Z,25.50
2023-01-20T20:29:38.656Z,24.60
2023-01-20T20:33:47.137Z,29.00
2023-01-20T20:37:55.003Z,21.80
2023-01-20T20:42:02.809Z,24.80
2023-01-20T20:46:11.161Z,24.50
2023-01-20T20:50:19.914Z,25.30
2023-01-20T20:54:28.509Z,25.00
2023-01-20T20:58:36.658Z,18.50
2023-01-20T21:02:44.587Z,27.00
2023-01-20T21:06:52.912Z,26.30
2023-01-20T21:11:03.437Z,25.80
2023-01-20T21:15:13.828Z,26.00
2023-01-20T21:19:21.838Z,26.40
2023-01-20T21:23:30.843Z,24.60
2023-01-20T21:27:39.625Z,29.70
2023-01-20T21:31:47.560Z,28.30
2023-01-20T21:35:55.684Z,22.80
2023-01-20T21:40:04.199Z,23.70
2023-01-20T21:44:32.518Z,25.70
2023-01-20T21:48:57.630Z,23.10
2023-01-20T21:53:06.031Z,23.50
2023-01-20T21:57:15.243Z,26.50
2023-01-20T22:01:22.867Z,26.00
2023-01-20T22:05:30.875Z,29.00
2023-01-20T22:09:38.908Z,25.00
2023-01-20T22:13:47.010Z,22.00
2023-01-20T22:17:55.984Z,25.50
2023-01-20T22:22:04.596Z,23.20
2023-01-20T22:26:12.589Z,23.00
2023-01-20T22:30:21.134Z,21.50
2023-01-20T22:34:29.447Z,24.20
2023-01-20T22:38:37.174Z,19.00
2023-01-20T22:42:46.014Z,20.30
2023-01-20T22:46:53.960Z,20.50
2023-01-20T22:51:08.349Z,21.50
2023-01-20T22:55:16.818Z,19.60
2023-01-20T22:59:24.021Z,19.60
2023-01-20T23:03:31.983Z,19.00
2023-01-20T23:07:40.815Z,15.80
2023-01-20T23:11:48.892Z,19.40
2023-01-20T23:15:56.970Z,20.80
2023-01-20T23:20:05.161Z,18.70
2023-01-20T23:24:12.876Z,18.80
2023-01-20T23:28:20.182Z,19.00
2023-01-20T23:32:28.145Z,17.50
2023-01-20T23:36:36.703Z,18.70
2023-01-20T23:40:44.204Z,19.00
2023-01-20T23:44:52.184Z,19.10
2023-01-20T23:49:00.288Z,17.50
2023-01-20T23:53:07.977Z,17.50
2023-01-20T23:57:15.681Z,18.60
